Time;durP1;ratioP1;P1;durP2;ratioP2;P2;SDS_P1;SDS_P2;PMS_P1;PMS_P2;Temp;Humidity;BMP_temperature;BMP_pressure;BME280_temperature;BME280_humidity;BME280_pressure;Samples;Min_cycle;Max_cycle;Signal;HPM_P1;HPM_P2
2023/07/13 00:00:36;;;;;;;;;;;;;;;;;;;;;
2023/07/13 00:03:34;;;;;;;20.85;5.45;;;15.20;76.70;;;;;;5014186;28;20120;-91
2023/07/13 00:06:16;;;;;;;17.52;4.97;;;15.20;77.40;;;;;;5002830;28;20585;-91
2023/07/13 00:09:15;;;;;;;;;;;;;;;;;;;;;
2023/07/13 00:12:29;;;;;;;;;;;;;;;;;;;;;
2023/07/13 00:15:26;;;;;;;;;;;;;;;;;;;;;
2023/07/13 00:18:05;;;;;;;;;;;;;;;;;;;;;
2023/07/13 00:21:04;;;;;;;17.58;5.55;;;15.20;77.70;;;;;;5044041;28;20140;-92
2023/07/13 00:24:05;;;;;;;20.55;5.68;;;15.30;77.90;;;;;;5063963;28;20048;-90
2023/07/13 00:26:57;;;;;;;;;;;;;;;;;;;;;
2023/07/13 00:29:29;;;;;;;18.88;5.15;;;15.30;77.70;;;;;;5023139;28;20128;-91
2023/07/13 00:32:56;;;;;;;23.15;5.25;;;15.30;77.60;;;;;;5037411;28;20057;-91
2023/07/13 00:35:33;;;;;;;20.10;5.40;;;15.40;77.70;;;;;;5011558;28;20053;-91
2023/07/13 00:38:39;;;;;;;21.38;5.75;;;15.40;77.50;;;;;;4993307;28;20095;-90
2023/07/13 00:44:28;;;;;;;;;;;;;;;;;;;;;
2023/07/13 00:47:29;;;;;;;;;;;;;;;;;;;;;
2023/07/13 00:54:10;;;;;;;20.58;5.13;;;15.30;77.90;;;;;;5028681;28;20056;-90
2023/07/13 00:57:24;;;;;;;16.92;4.90;;;15.30;77.90;;;;;;5055164;28;20739;-92
2023/07/13 01:00:24;;;;;;;;;;;;;;;;;;;;;
2023/07/13 01:07:18;;;;;;;;;;;;;;;;;;;;;
2023/07/13 01:10:25;;;;;;;;;;;;;;;;;;;;;
2023/07/13 01:13:33;;;;;;;13.57;4.95;;;15.20;78.00;;;;;;5011401;28;20182;-90
2023/07/13 01:23:06;;;;;;;14.80;4.55;;;15.20;78.40;;;;;;4933079;28;20053;-91
2023/07/13 01:25:55;;;;;;;15.23;4.45;;;15.10;77.90;;;;;;4906830;29;20044;-91
2023/07/13 01:28:56;;;;;;;18.17;4.40;;;15.00;77.80;;;;;;4999457;28;20053;-91
2023/07/13 01:34:52;;;;;;;;;;;;;;;;;;;;;
2023/07/13 01:37:49;;;;;;;;;;;;;;;;;;;;;
2023/07/13 01:49:59;;;;;;;;;;;;;;;;;;;;;
2023/07/13 01:53:15;;;;;;;;;;;;;;;;;;;;;
2023/07/13 01:55:56;;;;;;;12.38;3.55;;;15.00;78.10;;;;;;5009195;28;20409;-91
2023/07/13 01:58:26;;;;;;;8.93;3.10;;;15.00;77.80;;;;;;4947524;28;20057;-91
2023/07/13 02:00:52;;;;;;;8.40;2.10;;;15.00;77.50;;;;;;4988364;28;20077;-90
2023/07/13 02:03:53;;;;;;;7.90;1.85;;;15.00;77.30;;;;;;4992143;28;20073;-88
2023/07/13 02:06:32;;;;;;;7.82;1.95;;;15.20;76.80;;;;;;5001024;28;20580;-92
2023/07/13 02:09:01;;;;;;;8.52;1.73;;;15.20;76.60;;;;;;4991584;28;20076;-91
2023/07/13 02:11:42;;;;;;;;;;;;;;;;;;;;;
2023/07/13 02:15:01;;;;;;;;;;;;;;;;;;;;;
2023/07/13 02:18:10;;;;;;;;;;;;;;;;;;;;;
2023/07/13 02:21:02;;;;;;;5.05;1.00;;;15.40;76.30;;;;;;5006150;28;20062;-92
2023/07/13 02:24:20;;;;;;;4.43;1.00;;;15.40;76.20;;;;;;4976499;28;20050;-91
2023/07/13 02:27:09;;;;;;;3.17;1.08;;;15.30;76.40;;;;;;4958843;28;20046;-93
2023/07/13 02:29:55;;;;;;;;;;;;;;;;;;;;;
2023/07/13 02:33:10;;;;;;;3.72;1.08;;;15.30;76.20;;;;;;5033573;28;20053;-91
2023/07/13 02:35:57;;;;;;;;;;;;;;;;;;;;;
2023/07/13 02:39:12;;;;;;;4.68;1.33;;;15.20;76.40;;;;;;5041945;28;20048;-91
2023/07/13 02:41:43;;;;;;;6.25;1.20;;;15.20;76.80;;;;;;5033728;28;20409;-91
2023/07/13 02:44:32;;;;;;;5.72;1.33;;;15.10;76.60;;;;;;5014348;28;20714;-90
2023/07/13 02:47:41;;;;;;;4.60;1.45;;;15.00;76.70;;;;;;5026951;28;20103;-91
2023/07/13 02:50:37;;;;;;;;;;;;;;;;;;;;;
2023/07/13 02:54:14;;;;;;;;;;;;;;;;;;;;;
2023/07/13 02:59:57;;;;;;;;;;;;;;;;;;;;;
2023/07/13 03:03:11;;;;;;;;;;;;;;;;;;;;;
2023/07/13 03:05:50;;;;;;;6.45;1.65;;;14.90;77.20;;;;;;5020518;28;20063;-91
2023/07/13 03:08:39;;;;;;;10.27;1.98;;;14.80;77.20;;;;;;4979264;28;20151;-92
2023/07/13 03:11:41;;;;;;;;;;;;;;;;;;;;;
2023/07/13 03:14:38;;;;;;;8.57;2.28;;;14.70;77.10;;;;;;5006453;28;20049;-91
2023/07/13 03:17:27;;;;;;;8.13;2.15;;;14.60;77.40;;;;;;4999341;28;20045;-89
2023/07/13 03:20:18;;;;;;;7.20;2.15;;;14.60;77.60;;;;;;5031824;28;20187;-91
2023/07/13 03:23:30;;;;;;;9.43;2.83;;;14.60;77.90;;;;;;4989736;28;20178;-90
2023/07/13 03:34:23;;;;;;;;;;;;;;;;;;;;;
2023/07/13 03:50:34;;;;;;;14.45;5.40;;;14.60;79.00;;;;;;4856244;29;20064;-90
2023/07/13 03:53:28;;;;;;;13.57;5.05;;;14.60;79.30;;;;;;4906920;29;20062;-90
2023/07/13 03:56:56;;;;;;;17.92;5.88;;;14.60;79.50;;;;;;4952997;28;20129;-93
2023/07/13 03:59:33;;;;;;;;;;;;;;;;;;;;;
2023/07/13 04:02:10;;;;;;;26.20;6.63;;;14.70;79.90;;;;;;4958174;28;20051;-92
2023/07/13 04:04:40;;;;;;;23.88;6.80;;;14.60;80.00;;;;;;4956016;28;20065;-92
2023/07/13 04:07:12;;;;;;;21.53;6.93;;;14.70;80.10;;;;;;4948301;28;20118;-92
2023/07/13 04:09:53;;;;;;;22.23;6.97;;;14.70;80.30;;;;;;4963241;28;20302;-90
2023/07/13 04:12:19;;;;;;;21.02;7.40;;;14.70;80.40;;;;;;5036156;28;20442;-91
2023/07/13 04:14:45;;;;;;;21.95;6.40;;;14.60;80.40;;;;;;5028236;28;20138;-90
2023/07/13 04:17:14;;;;;;;19.35;6.75;;;14.70;80.40;;;;;;5031953;28;20131;-89
2023/07/13 04:19:43;;;;;;;24.33;7.07;;;14.70;80.30;;;;;;5020151;28;20126;-91
2023/07/13 04:22:11;;;;;;;26.17;7.05;;;14.60;80.60;;;;;;5037536;28;20045;-90
2023/07/13 04:24:39;;;;;;;24.10;6.80;;;14.70;80.80;;;;;;5041293;28;20060;-90
2023/07/13 04:27:08;;;;;;;22.88;6.95;;;14.70;80.70;;;;;;5006427;28;20198;-89
2023/07/13 04:29:36;;;;;;;19.48;6.63;;;14.70;80.90;;;;;;5041140;28;20049;-90
2023/07/13 04:32:11;;;;;;;25.52;7.03;;;14.70;80.90;;;;;;5047337;28;20053;-90
2023/07/13 04:34:40;;;;;;;22.85;6.63;;;14.70;81.00;;;;;;5059867;28;20041;-90
2023/07/13 04:37:12;;;;;;;23.58;6.65;;;14.70;81.00;;;;;;5034961;28;20075;-90
2023/07/13 04:39:38;;;;;;;21.50;6.45;;;14.70;80.90;;;;;;5003146;28;20041;-90
2023/07/13 04:42:13;;;;;;;19.60;6.97;;;14.80;81.10;;;;;;5008764;28;20132;-90
2023/07/13 04:44:41;;;;;;;21.42;6.72;;;14.80;81.10;;;;;;5006259;28;20065;-90
2023/07/13 04:47:19;;;;;;;21.20;6.40;;;14.90;81.10;;;;;;5030578;28;20056;-91
2023/07/13 04:49:48;;;;;;;24.67;6.53;;;14.90;81.10;;;;;;5036630;28;20033;-90
2023/07/13 04:52:14;;;;;;;20.20;6.60;;;14.90;81.20;;;;;;5033953;28;20059;-90
2023/07/13 04:54:42;;;;;;;20.58;6.57;;;15.00;81.10;;;;;;5033475;28;20037;-90
2023/07/13 04:57:19;;;;;;;21.05;6.43;;;15.00;81.10;;;;;;5029539;28;20643;-90
2023/07/13 04:59:45;;;;;;;23.05;6.55;;;15.10;81.00;;;;;;5011101;28;20044;-91
2023/07/13 05:06:20;;;;;;;16.67;6.18;;;15.20;81.00;;;;;;5029372;28;20045;-92
2023/07/13 05:08:51;;;;;;;19.67;5.80;;;15.30;81.10;;;;;;5028977;28;20079;-92
2023/07/13 05:11:23;;;;;;;18.67;6.18;;;15.30;80.90;;;;;;5036198;28;20123;-91
2023/07/13 05:14:31;;;;;;;23.15;6.03;;;15.40;80.70;;;;;;5066412;28;20044;-90
2023/07/13 05:17:19;;;;;;;18.75;5.40;;;15.50;80.60;;;;;;5094873;28;20611;-90
2023/07/13 05:20:46;;;;;;;23.08;5.75;;;15.60;80.60;;;;;;5081817;28;20134;-94
2023/07/13 05:24:12;;;;;;;;;;;;;;;;;;;;;
2023/07/13 05:27:08;;;;;;;19.25;5.68;;;15.80;80.20;;;;;;5011546;28;20628;-93
2023/07/13 05:30:16;;;;;;;;;;;;;;;;;;;;;
2023/07/13 05:36:52;;;;;;;;;;;;;;;;;;;;;
2023/07/13 05:39:28;;;;;;;19.02;5.75;;;16.10;79.50;;;;;;4990671;28;20057;-92
2023/07/13 05:42:16;;;;;;;18.98;5.45;;;16.20;79.50;;;;;;5010767;28;20038;-93
2023/07/13 05:49:30;;;;;;;;;;;;;;;;;;;;;
2023/07/13 05:52:40;;;;;;;;;;;;;;;;;;;;;
2023/07/13 05:59:37;;;;;;;;;;;;;;;;;;;;;
2023/07/13 06:10:17;;;;;;;13.98;3.78;;;16.90;77.80;;;;;;4803073;29;20076;-94
2023/07/13 06:27:57;;;;;;;14.50;3.15;;;17.40;77.20;;;;;;4843176;29;20561;-91
2023/07/13 06:30:59;;;;;;;12.93;3.33;;;17.40;77.00;;;;;;4854569;28;20143;-91
2023/07/13 06:36:19;;;;;;;14.40;3.35;;;17.50;76.40;;;;;;4965153;28;20043;-95
2023/07/13 06:42:46;;;;;;;10.38;2.83;;;17.60;75.70;;;;;;4945209;28;20078;-91
2023/07/13 06:45:31;;;;;;;9.60;2.90;;;17.70;75.40;;;;;;4930209;28;20145;-91
2023/07/13 06:48:13;;;;;;;12.88;3.05;;;17.80;75.50;;;;;;5003754;28;20136;-92
2023/07/13 06:50:52;;;;;;;9.23;2.70;;;17.80;75.30;;;;;;5017966;28;20057;-92
2023/07/13 06:53:36;;;;;;;10.05;2.90;;;17.90;75.00;;;;;;5013665;28;20044;-93
2023/07/13 06:56:07;;;;;;;10.32;2.17;;;18.00;74.60;;;;;;5037915;28;20860;-92
2023/07/13 06:58:35;;;;;;;8.30;2.60;;;18.00;73.50;;;;;;5019049;28;20048;-92
2023/07/13 07:01:04;;;;;;;8.23;1.90;;;18.10;73.00;;;;;;5050909;28;20631;-92
2023/07/13 07:03:43;;;;;;;6.75;1.90;;;18.10;72.10;;;;;;5020922;28;20539;-93
2023/07/13 07:06:34;;;;;;;7.85;2.13;;;18.10;72.10;;;;;;5019105;28;20041;-93
2023/07/13 07:09:20;;;;;;;;;;;18.20;71.40;;;;;;5029340;28;20120;-93
2023/07/13 07:11:49;;;;;;;10.65;2.90;;;18.20;71.50;;;;;;5018427;28;19972;-92
2023/07/13 07:14:23;;;;;;;8.48;2.40;;;18.20;72.40;;;;;;5031049;28;20172;-90
2023/07/13 07:16:50;;;;;;;11.80;2.50;;;18.20;72.00;;;;;;5027020;28;20053;-92
2023/07/13 07:19:16;;;;;;;8.30;2.45;;;18.20;72.50;;;;;;5012173;28;20067;-90
2023/07/13 07:21:47;;;;;;;12.32;2.20;;;18.20;72.40;;;;;;5030818;28;20056;-92
2023/07/13 07:24:15;;;;;;;9.57;2.25;;;18.20;72.40;;;;;;5019972;28;20060;-91
2023/07/13 07:26:42;;;;;;;4.93;1.60;;;18.20;72.30;;;;;;4990145;28;20041;-91
2023/07/13 07:29:12;;;;;;;6.05;1.80;;;18.30;72.00;;;;;;5011928;28;20040;-91
2023/07/13 07:31:38;;;;;;;7.13;1.95;;;18.30;71.30;;;;;;4999496;28;20049;-91
2023/07/13 07:34:07;;;;;;;7.18;1.48;;;18.40;71.20;;;;;;5013624;28;20056;-91
2023/07/13 07:36:36;;;;;;;6.63;1.85;;;18.40;70.90;;;;;;5011465;28;20748;-92
2023/07/13 07:39:10;;;;;;;8.07;2.15;;;18.50;70.30;;;;;;4995705;28;20057;-90
2023/07/13 07:41:48;;;;;;;7.13;1.92;;;18.50;70.10;;;;;;5031517;28;20056;-92
2023/07/13 07:44:28;;;;;;;9.75;2.58;;;18.60;70.30;;;;;;5022413;28;20057;-91
2023/07/13 07:46:56;;;;;;;12.43;2.97;;;18.60;70.80;;;;;;5010411;28;20053;-91
2023/07/13 07:49:22;;;;;;;7.43;2.35;;;18.60;71.10;;;;;;5001793;28;20049;-91
2023/07/13 07:51:49;;;;;;;10.15;2.65;;;18.50;71.20;;;;;;5030846;28;20086;-92
2023/07/13 07:54:18;;;;;;;6.05;2.58;;;18.40;71.40;;;;;;5011044;28;21143;-91
2023/07/13 07:56:44;;;;;;;6.90;1.77;;;18.30;71.20;;;;;;5012632;28;20321;-93
2023/07/13 07:59:10;;;;;;;6.72;1.40;;;18.20;70.50;;;;;;5010854;28;20658;-93
2023/07/13 08:01:40;;;;;;;2.80;1.52;;;18.10;69.60;;;;;;5015135;28;20485;-91
2023/07/13 08:04:06;;;;;;;4.43;1.30;;;18.00;69.70;;;;;;5005409;28;20052;-90
2023/07/13 08:06:34;;;;;;;4.07;1.35;;;17.80;69.20;;;;;;5012596;28;20037;-94
2023/07/13 08:09:04;;;;;;;4.47;1.20;;;17.70;68.80;;;;;;5009220;28;20045;-90
2023/07/13 08:11:32;;;;;;;5.55;1.30;;;17.60;68.50;;;;;;4995084;28;20053;-92
2023/07/13 08:13:58;;;;;;;3.42;1.35;;;17.70;68.50;;;;;;5033806;28;20055;-90
2023/07/13 08:16:24;;;;;;;3.65;1.65;;;17.80;68.70;;;;;;5008591;28;20057;-92
2023/07/13 08:18:50;;;;;;;7.80;2.03;;;17.80;68.90;;;;;;5014078;28;20052;-92
2023/07/13 08:21:16;;;;;;;5.85;1.52;;;17.70;69.30;;;;;;5013053;28;20126;-90
2023/07/13 08:23:44;;;;;;;5.93;1.63;;;17.60;69.90;;;;;;5017731;28;20558;-90
2023/07/13 08:26:10;;;;;;;5.05;1.88;;;17.60;70.70;;;;;;5012341;28;20132;-92
2023/07/13 08:28:53;;;;;;;6.30;2.10;;;17.50;71.10;;;;;;5020957;28;20048;-93
2023/07/13 08:31:19;;;;;;;5.97;1.67;;;17.50;71.10;;;;;;5013211;28;20075;-90
2023/07/13 08:33:45;;;;;;;8.43;1.83;;;17.40;71.00;;;;;;5009206;28;21276;-90
2023/07/13 08:36:31;;;;;;;6.35;2.20;;;17.30;71.10;;;;;;5027760;28;20138;-93
2023/07/13 08:38:57;;;;;;;3.33;1.48;;;17.20;71.20;;;;;;5023962;28;20083;-92
2023/07/13 08:41:23;;;;;;;6.93;2.10;;;17.20;71.30;;;;;;5026824;28;20156;-93
2023/07/13 08:44:00;;;;;;;6.70;2.03;;;17.20;71.40;;;;;;5019587;28;20045;-91
2023/07/13 08:46:37;;;;;;;6.35;1.98;;;17.20;71.70;;;;;;5060309;28;20249;-93
2023/07/13 08:49:23;;;;;;;5.70;2.00;;;17.20;71.90;;;;;;5028764;28;20068;-91
2023/07/13 08:52:27;;;;;;;4.75;1.50;;;17.30;72.20;;;;;;5011867;28;20059;-91
2023/07/13 08:54:58;;;;;;;7.20;2.28;;;17.40;72.30;;;;;;5023935;28;20053;-92
2023/07/13 08:57:31;;;;;;;5.68;2.35;;;17.50;72.20;;;;;;5019111;28;20049;-90
2023/07/13 08:59:58;;;;;;;10.93;2.90;;;17.50;72.20;;;;;;5024426;28;20060;-92
2023/07/13 09:02:38;;;;;;;8.25;2.65;;;17.60;72.30;;;;;;5060909;28;20057;-91
2023/07/13 09:05:27;;;;;;;11.52;2.97;;;17.80;72.40;;;;;;5027488;28;20049;-92
2023/07/13 09:08:29;;;;;;;9.32;3.00;;;17.80;72.80;;;;;;5055144;28;20076;-91
2023/07/13 09:11:25;;;;;;;;;;;17.90;72.80;;;;;;5021024;28;20126;-92
2023/07/13 09:14:15;;;;;;;9.30;2.22;;;18.00;72.60;;;;;;4961171;28;20022;-91
2023/07/13 09:16:42;;;;;;;5.55;2.30;;;18.20;71.80;;;;;;5015573;28;20053;-93
2023/07/13 09:19:19;;;;;;;8.18;2.65;;;18.40;71.50;;;;;;5017235;28;20106;-94
2023/07/13 09:21:45;;;;;;;7.07;2.20;;;18.60;71.50;;;;;;5019668;28;20062;-91
2023/07/13 09:24:39;;;;;;;6.35;2.28;;;18.80;71.00;;;;;;4994037;28;20045;-90
2023/07/13 09:27:21;;;;;;;6.05;2.40;;;19.00;69.60;;;;;;5000139;28;20065;-91
2023/07/13 09:29:57;;;;;;;8.25;2.58;;;19.20;69.60;;;;;;4999716;28;20094;-92
2023/07/13 09:32:26;;;;;;;6.15;1.80;;;19.30;68.90;;;;;;5004267;28;20065;-94
2023/07/13 09:34:54;;;;;;;7.75;2.17;;;19.50;68.70;;;;;;5027907;28;20057;-92
2023/07/13 09:37:32;;;;;;;6.03;2.10;;;19.70;68.50;;;;;;5014998;28;20414;-94
2023/07/13 09:40:04;;;;;;;9.52;2.10;;;19.90;67.50;;;;;;5017260;28;20060;-91
2023/07/13 09:42:38;;;;;;;5.50;1.85;;;20.00;66.10;;;;;;4989167;28;21140;-92
2023/07/13 09:45:27;;;;;;;7.65;1.50;;;19.90;65.80;;;;;;5032176;28;20098;-93
2023/07/13 09:48:45;;;;;;;3.88;1.33;;;19.70;64.60;;;;;;5027126;28;20057;-93
2023/07/13 09:51:15;;;;;;;5.30;1.13;;;19.60;64.00;;;;;;4983514;28;20064;-94
2023/07/13 09:53:45;;;;;;;3.47;0.98;;;19.50;63.20;;;;;;4988704;28;20857;-91
2023/07/13 09:56:22;;;;;;;3.42;1.00;;;19.50;62.70;;;;;;5000561;28;20091;-93
2023/07/13 09:58:58;;;;;;;2.75;0.98;;;19.50;61.60;;;;;;5041757;28;20084;-92
2023/07/13 10:01:38;;;;;;;2.92;0.98;;;19.50;62.00;;;;;;4996837;28;20106;-94
2023/07/13 10:04:18;;;;;;;4.50;0.93;;;19.70;62.30;;;;;;5014460;28;20164;-89
2023/07/13 10:06:45;;;;;;;4.68;1.00;;;19.80;62.60;;;;;;5027722;28;20585;-93
2023/07/13 10:09:20;;;;;;;4.35;1.23;;;19.70;62.90;;;;;;5012302;28;20079;-92
2023/07/13 10:11:51;;;;;;;4.78;0.88;;;19.70;62.80;;;;;;5015655;28;20052;-94
2023/07/13 10:14:25;;;;;;;6.07;0.93;;;19.70;63.20;;;;;;5024199;28;20551;-92
2023/07/13 10:17:16;;;;;;;3.90;0.85;;;19.90;63.00;;;;;;5005548;28;20053;-94
2023/07/13 10:19:56;;;;;;;5.50;0.98;;;19.90;62.70;;;;;;5057290;28;20057;-94
2023/07/13 10:22:51;;;;;;;3.27;1.10;;;20.00;63.40;;;;;;5024096;28;21670;-94
2023/07/13 10:25:39;;;;;;;4.32;0.60;;;20.00;61.80;;;;;;5008007;28;20291;-96
2023/07/13 10:28:31;;;;;;;2.83;0.73;;;20.10;60.00;;;;;;5011327;28;20053;-92
2023/07/13 10:34:11;;;;;;;5.78;0.88;;;20.30;60.90;;;;;;5024879;28;20055;-92
2023/07/13 10:36:56;;;;;;;1.98;0.70;;;20.10;61.30;;;;;;5023309;28;20724;-95
2023/07/13 10:39:48;;;;;;;2.45;0.52;;;20.00;60.50;;;;;;5028763;28;20097;-94
2023/07/13 10:43:07;;;;;;;2.72;0.50;;;19.90;61.50;;;;;;5036936;28;20057;-91
2023/07/13 10:45:49;;;;;;;3.40;0.52;;;19.80;60.40;;;;;;4965135;28;20191;-91
2023/07/13 10:48:16;;;;;;;2.83;0.73;;;19.90;60.80;;;;;;4952207;28;20085;-91
2023/07/13 10:51:07;;;;;;;2.50;0.68;;;19.90;60.90;;;;;;4989085;28;20087;-92
2023/07/13 10:53:44;;;;;;;2.20;0.70;;;19.90;61.30;;;;;;5024754;28;20071;-93
2023/07/13 10:57:00;;;;;;;4.70;0.65;;;19.90;61.30;;;;;;5024725;28;20045;-95
2023/07/13 10:59:41;;;;;;;6.95;1.08;;;19.90;61.00;;;;;;4986920;28;20112;-95
2023/07/13 11:02:23;;;;;;;4.60;1.08;;;19.90;61.50;;;;;;5011713;28;21066;-93
2023/07/13 11:05:00;;;;;;;3.42;0.85;;;19.70;62.00;;;;;;5025623;28;20412;-93
2023/07/13 11:08:07;;;;;;;;;;;;;;;;;;;;;
2023/07/13 11:11:01;;;;;;;3.45;1.10;;;19.70;60.90;;;;;;5025184;28;21041;-96
2023/07/13 11:15:10;;;;;;;7.45;1.08;;;19.80;60.40;;;;;;5027032;28;20049;-94
2023/07/13 11:21:16;;;;;;;4.60;1.05;;;20.30;61.30;;;;;;4901234;28;20046;-94
2023/07/13 11:26:49;;;;;;;4.60;1.10;;;20.50;60.90;;;;;;4944657;28;20664;-91
2023/07/13 11:29:15;;;;;;;3.75;1.27;;;20.50;60.60;;;;;;4975109;28;20048;-92
2023/07/13 11:31:51;;;;;;;7.78;1.33;;;20.40;61.40;;;;;;5012522;28;20146;-96
2023/07/13 11:34:23;;;;;;;3.70;1.10;;;20.50;59.90;;;;;;4996751;28;20061;-93
2023/07/13 11:37:23;;;;;;;3.10;0.82;;;20.30;60.30;;;;;;4996706;28;20082;-96
2023/07/13 11:39:52;;;;;;;3.47;1.08;;;20.40;60.70;;;;;;4987357;28;20081;-88
2023/07/13 11:42:20;;;;;;;4.97;0.88;;;20.60;60.80;;;;;;5025162;28;20182;-91
2023/07/13 11:45:00;;;;;;;3.10;0.95;;;20.60;60.00;;;;;;5001837;28;20689;-87
2023/07/13 11:47:28;;;;;;;5.40;1.02;;;20.60;58.20;;;;;;5032594;28;20053;-88
2023/07/13 11:49:57;;;;;;;6.60;1.27;;;20.70;58.60;;;;;;4986960;28;20053;-92
2023/07/13 11:52:39;;;;;;;6.78;1.20;;;20.70;59.40;;;;;;4989833;28;20048;-91
2023/07/13 11:55:15;;;;;;;4.18;1.00;;;20.80;60.20;;;;;;5006639;28;20048;-90
2023/07/13 11:57:46;;;;;;;5.28;1.10;;;20.90;59.20;;;;;;5033820;28;20101;-89
2023/07/13 12:00:24;;;;;;;4.15;0.93;;;21.00;59.90;;;;;;5006069;28;20045;-90
2023/07/13 12:02:55;;;;;;;3.97;1.17;;;21.10;58.50;;;;;;5037411;28;20049;-89
2023/07/13 12:05:24;;;;;;;3.88;1.20;;;21.00;58.10;;;;;;5026497;28;20156;-91
2023/07/13 12:07:50;;;;;;;3.92;1.23;;;21.00;59.10;;;;;;5007994;28;20056;-91
2023/07/13 12:10:24;;;;;;;4.07;1.10;;;21.10;58.00;;;;;;5023884;28;20048;-89
2023/07/13 12:12:54;;;;;;;4.43;1.30;;;21.00;58.50;;;;;;5008539;28;21371;-90
2023/07/13 12:15:22;;;;;;;5.07;1.30;;;21.00;59.20;;;;;;5016016;28;20653;-90
2023/07/13 12:17:48;;;;;;;4.68;1.40;;;21.00;59.40;;;;;;5023538;28;20904;-90
2023/07/13 12:20:35;;;;;;;6.80;1.23;;;21.10;59.50;;;;;;5028999;28;20194;-90
2023/07/13 12:23:02;;;;;;;3.58;1.15;;;21.00;58.90;;;;;;5060226;28;20442;-89
2023/07/13 12:25:29;;;;;;;6.47;0.90;;;20.90;59.00;;;;;;5012082;28;20071;-88
2023/07/13 12:27:58;;;;;;;8.80;1.38;;;20.80;58.60;;;;;;5040384;28;20044;-89
2023/07/13 12:30:33;;;;;;;4.28;1.00;;;20.60;59.80;;;;;;5011116;28;20063;-91
2023/07/13 12:33:37;;;;;;;4.90;1.20;;;20.30;61.50;;;;;;5022438;28;20610;-91
2023/07/13 12:36:30;;;;;;;2.65;0.80;;;20.00;62.00;;;;;;4961584;28;20084;-90
2023/07/13 12:39:34;;;;;;;3.95;0.90;;;19.70;62.50;;;;;;5032696;28;20530;-93
2023/07/13 12:42:30;;;;;;;4.93;0.80;;;19.50;63.70;;;;;;5053587;28;20130;-89
2023/07/13 12:45:31;;;;;;;;;;;;;;;;;;;;;
2023/07/13 12:48:09;;;;;;;3.97;1.33;;;19.50;64.00;;;;;;5017959;28;20504;-91
2023/07/13 12:51:20;;;;;;;6.78;1.75;;;19.90;64.20;;;;;;5035024;28;20563;-95
2023/07/13 12:55:01;;;;;;;3.38;1.42;;;20.00;64.20;;;;;;5041647;28;20416;-93
2023/07/13 12:57:40;;;;;;;4.70;1.40;;;19.90;64.70;;;;;;4949888;28;20085;-93
2023/07/13 13:00:32;;;;;;;6.60;1.70;;;20.00;64.70;;;;;;4945191;28;20068;-90
2023/07/13 13:03:55;;;;;;;6.97;1.30;;;20.00;63.30;;;;;;5017177;28;20554;-91
2023/07/13 13:06:25;;;;;;;6.38;2.13;;;19.90;64.00;;;;;;5030413;28;20056;-91
2023/07/13 13:09:15;;;;;;;9.15;2.50;;;19.60;65.90;;;;;;5062143;28;20416;-92
2023/07/13 13:11:44;;;;;;;12.27;2.40;;;19.20;68.50;;;;;;5077185;28;20059;-92
2023/07/13 13:14:10;;;;;;;12.43;2.50;;;18.70;68.80;;;;;;5012268;28;20063;-92
2023/07/13 13:17:00;;;;;;;7.47;2.40;;;18.40;69.80;;;;;;5016749;28;20064;-94
2023/07/13 13:19:29;;;;;;;7.55;2.45;;;18.00;70.90;;;;;;5024062;28;20589;-90
2023/07/13 13:21:59;;;;;;;9.80;2.83;;;17.80;70.70;;;;;;5021663;28;20049;-93
2023/07/13 13:24:27;;;;;;;8.40;2.70;;;17.60;71.50;;;;;;5019686;28;20064;-94
2023/07/13 13:26:56;;;;;;;7.50;3.05;;;17.60;72.40;;;;;;5040085;28;20135;-90
2023/07/13 13:29:25;;;;;;;8.32;2.97;;;17.60;72.80;;;;;;5006821;28;20217;-91
2023/07/13 13:31:52;;;;;;;8.80;2.70;;;17.70;73.30;;;;;;5016691;28;20552;-88
2023/07/13 13:34:20;;;;;;;7.15;2.53;;;17.80;72.90;;;;;;5009013;28;21238;-89
2023/07/13 13:36:50;;;;;;;8.23;2.58;;;17.90;73.00;;;;;;5011280;28;20049;-93
2023/07/13 13:39:43;;;;;;;7.03;2.55;;;18.10;73.40;;;;;;5013424;28;20455;-90
2023/07/13 13:42:10;;;;;;;8.63;2.47;;;18.20;72.50;;;;;;5019951;28;20156;-91
2023/07/13 13:44:35;;;;;;;8.98;2.25;;;18.30;72.20;;;;;;5014556;28;20165;-88
2023/07/13 13:47:02;;;;;;;6.13;2.40;;;18.40;72.00;;;;;;5018601;28;20067;-91
2023/07/13 13:49:32;;;;;;;8.18;2.30;;;18.60;72.20;;;;;;5011325;28;20049;-92
2023/07/13 13:51:59;;;;;;;7.47;1.88;;;18.80;72.20;;;;;;4999061;28;20071;-89
2023/07/13 13:54:25;;;;;;;8.60;1.88;;;19.10;70.50;;;;;;5014246;28;20064;-91
2023/07/13 13:56:52;;;;;;;5.15;1.90;;;19.20;70.00;;;;;;5015494;28;21132;-90
2023/07/13 13:59:25;;;;;;;4.22;1.80;;;19.40;69.90;;;;;;5007795;28;20051;-90
2023/07/13 14:01:51;;;;;;;5.43;1.65;;;19.60;69.20;;;;;;5015168;28;20185;-93
2023/07/13 14:04:21;;;;;;;5.38;1.80;;;19.70;66.80;;;;;;5045950;28;20615;-89
2023/07/13 14:06:49;;;;;;;5.85;1.58;;;19.70;68.00;;;;;;5010008;28;20029;-90
2023/07/13 14:09:18;;;;;;;5.53;1.60;;;19.90;67.60;;;;;;5013163;28;20195;-92
2023/07/13 14:11:46;;;;;;;4.47;1.50;;;20.00;66.50;;;;;;4998487;28;20056;-90
2023/07/13 14:14:27;;;;;;;5.05;1.30;;;20.00;65.40;;;;;;5013612;28;20049;-88
2023/07/13 14:16:57;;;;;;;7.28;1.42;;;20.00;63.90;;;;;;5018881;28;20074;-93
2023/07/13 14:19:23;;;;;;;5.18;1.58;;;20.00;64.50;;;;;;5006082;28;21325;-90
2023/07/13 14:21:53;;;;;;;4.25;1.40;;;20.10;64.00;;;;;;5024178;28;21306;-92
2023/07/13 14:24:19;;;;;;;5.70;1.50;;;20.30;64.00;;;;;;5057725;28;20082;-90
2023/07/13 14:26:48;;;;;;;5.80;1.30;;;20.50;64.20;;;;;;5003905;28;20056;-92
2023/07/13 14:29:19;;;;;;;6.43;1.65;;;20.40;63.60;;;;;;5012521;28;21360;-94
2023/07/13 14:31:45;;;;;;;6.18;1.83;;;20.30;62.30;;;;;;5020827;28;20052;-88
2023/07/13 14:34:12;;;;;;;5.60;1.50;;;20.20;63.40;;;;;;5005865;28;20060;-89
2023/07/13 14:36:54;;;;;;;4.82;1.60;;;20.30;64.20;;;;;;5024182;28;20729;-93
2023/07/13 14:39:27;;;;;;;6.30;1.90;;;20.30;64.20;;;;;;5020809;28;20414;-91
2023/07/13 14:42:14;;;;;;;9.93;1.90;;;20.40;63.70;;;;;;5005566;28;21453;-91
2023/07/13 14:44:40;;;;;;;3.83;1.52;;;20.40;63.70;;;;;;5012419;28;21661;-91
2023/07/13 14:47:07;;;;;;;6.55;1.90;;;20.30;64.20;;;;;;5016974;28;20048;-94
2023/07/13 14:49:47;;;;;;;7.20;2.05;;;20.20;63.90;;;;;;5017526;28;20059;-91
2023/07/13 14:52:20;;;;;;;4.50;1.85;;;20.10;64.30;;;;;;5017453;28;20055;-92
2023/07/13 14:55:04;;;;;;;6.60;1.88;;;20.30;64.50;;;;;;5020369;28;20052;-92
2023/07/13 14:57:30;;;;;;;7.32;1.73;;;20.40;63.20;;;;;;5037259;28;20188;-92
2023/07/13 15:00:02;;;;;;;11.10;1.77;;;20.40;63.20;;;;;;5004151;28;20045;-92
2023/07/13 15:02:37;;;;;;;8.82;2.03;;;20.50;63.60;;;;;;4992191;28;20048;-90
2023/07/13 15:05:19;;;;;;;8.52;1.73;;;20.60;64.20;;;;;;5015684;28;20127;-90
2023/07/13 15:07:45;;;;;;;7.45;1.85;;;20.70;62.50;;;;;;5015491;28;20899;-92
2023/07/13 15:10:23;;;;;;;7.70;1.90;;;20.70;63.60;;;;;;5004862;28;20049;-92
2023/07/13 15:12:51;;;;;;;5.20;1.35;;;20.70;62.00;;;;;;5003252;28;20979;-90
2023/07/13 15:15:20;;;;;;;6.93;1.63;;;20.50;62.60;;;;;;5018957;28;20056;-93
2023/07/13 15:17:48;;;;;;;5.95;2.05;;;20.40;62.40;;;;;;4998704;28;20625;-90
2023/07/13 15:20:32;;;;;;;6.95;1.92;;;20.40;62.90;;;;;;5018485;28;20060;-94
2023/07/13 15:23:02;;;;;;;7.38;1.50;;;20.60;63.10;;;;;;5019346;28;20675;-92
2023/07/13 15:25:33;;;;;;;8.30;1.67;;;20.70;62.40;;;;;;5009023;28;20064;-92
2023/07/13 15:27:59;;;;;;;6.05;1.38;;;20.70;62.30;;;;;;5015943;28;20067;-89
2023/07/13 15:30:37;;;;;;;3.38;1.45;;;20.70;61.10;;;;;;5017361;28;20048;-91
2023/07/13 15:33:50;;;;;;;5.50;1.73;;;20.60;59.80;;;;;;5025050;28;21241;-92
2023/07/13 15:36:45;;;;;;;7.00;1.90;;;20.40;60.90;;;;;;5003286;28;20061;-95
2023/07/13 15:39:37;;;;;;;6.57;1.95;;;20.50;62.10;;;;;;5000068;28;20080;-93
2023/07/13 15:42:49;;;;;;;4.70;1.88;;;20.50;61.50;;;;;;4998255;28;20071;-95
2023/07/13 15:45:26;;;;;;;5.05;1.80;;;20.50;61.20;;;;;;5008535;28;20061;-91
2023/07/13 15:47:55;;;;;;;7.78;1.77;;;20.50;61.90;;;;;;5019909;28;20133;-93
2023/07/13 15:50:24;;;;;;;5.38;1.35;;;20.60;62.10;;;;;;5053732;28;20088;-92
2023/07/13 15:52:58;;;;;;;5.00;1.73;;;20.60;62.20;;;;;;5005362;28;20074;-90
2023/07/13 15:55:24;;;;;;;7.55;1.67;;;20.70;62.30;;;;;;5013769;28;20295;-91
2023/07/13 15:57:52;;;;;;;7.15;2.05;;;20.80;62.10;;;;;;5020809;28;20048;-89
2023/07/13 16:00:25;;;;;;;8.88;1.92;;;20.80;61.40;;;;;;5026237;28;21357;-91
2023/07/13 16:02:51;;;;;;;7.40;2.35;;;20.70;61.60;;;;;;5021336;28;20492;-92
2023/07/13 16:05:19;;;;;;;6.47;1.80;;;20.60;61.80;;;;;;5022146;28;21079;-95
2023/07/13 16:07:46;;;;;;;5.50;1.67;;;20.60;62.20;;;;;;5038642;28;20056;-92
2023/07/13 16:10:32;;;;;;;4.50;1.95;;;20.70;62.50;;;;;;5025245;28;20101;-90
2023/07/13 16:13:39;;;;;;;;;;;;;;;;;;;;;
2023/07/13 16:16:36;;;;;;;6.45;2.00;;;20.60;62.80;;;;;;5048169;28;20048;-93
2023/07/13 16:19:13;;;;;;;6.28;1.90;;;20.60;62.40;;;;;;5020357;28;20053;-91
2023/07/13 16:22:05;;;;;;;8.18;2.20;;;20.60;62.40;;;;;;5049267;28;20072;-92
2023/07/13 16:24:49;;;;;;;8.32;2.40;;;20.70;62.90;;;;;;4966933;28;20075;-93
2023/07/13 16:27:15;;;;;;;9.98;2.38;;;20.80;63.10;;;;;;5008428;28;21467;-91
2023/07/13 16:29:41;;;;;;;7.93;2.05;;;20.90;62.90;;;;;;5004934;28;20053;-91